Gunilla — SERW — position and weather

sailwx.info

Track history (hours):
 
Tides and Currents Weather Stations Pressure Air Temp Water Temp Dewpoint Dewpoint Depression Visibility Wind Speed Wind Dir Waves Ship Positions

Gunilla (Sweden)

Ship's website: http://www.gunilla.nu/engelsk/frameset_english.htm

Last reported at 2020-Aug-04 10:30 UTC. Time now 2020-Aug-13 12:11 UTC.
Position N 60°51' E 002°36'.
Warning: this ship's position is 9 days out of date.

Length 49.4 m; beam 8.4 m; draft 2.7 m.

Type: Sailing vessel. MMSI: 265318000.

Date/timePositionNaut miles runAvg speedWind from/ knotsBaromVisibWave heightAir tempDewpointWater temp
2020-Aug-04 10:30N 60°51' E 002°36'5 4.9
2020-Aug-04 09:27N 60°47' E 002°43'3 5.2
2020-Aug-04 08:57N 60°45' E 002°46'2 5.3
2020-Aug-04 08:30N 60°43' E 002°48'17 4.8
2020-Aug-04 05:00N 60°29' E 003°04'5 5.1
2020-Aug-04 04:00N 60°25' E 003°11'5 5.1
2020-Aug-04 02:56N 60°20' E 003°15'22 4.9
2020-Aug-03 22:30N 59°59' E 003°28'24 4.9
2020-Aug-03 17:30N 59°35' E 003°33'6 6.1
2020-Aug-03 16:30N 59°29' E 003°33'5 4.7
2020-Aug-03 15:28N 59°24' E 003°31'10 3.9
2020-Aug-03 13:00N 59°14' E 003°36'67 3.4
2020-Aug-02 17:22N 58°08' E 003°58'5 5.9
2020-Aug-02 16:31N 58°08' E 004°07'17 5.8
2020-Aug-02 13:31N 58°07' E 004°40'3 5.0
2020-Aug-02 13:00N 58°07' E 004°45'3 5.2
2020-Aug-02 12:31N 58°06' E 004°49'10 5.0
2020-Aug-02 10:31N 58°05' E 005°08'2 4.7
2020-Aug-02 10:00N 58°04' E 005°13'15 4.3
2020-Aug-02 06:30N 57°60' E 005°40'6 4.0
2020-Aug-02 05:00N 57°58' E 005°51'2 4.6
2020-Aug-02 04:30N 57°58' E 005°55'2 4.9
2020-Aug-02 04:00N 57°57' E 005°59'5 5.2
2020-Aug-02 03:01N 57°57' E 006°09'6 5.6
2020-Aug-02 02:00N 57°56' E 006°20'6 5.5
2020-Aug-02 01:00N 57°53' E 006°29'12 4.7
2020-Aug-01 22:31N 57°48' E 006°48'32 4.9
2020-Aug-01 16:01N 57°45' E 007°48'10 5.2
2020-Aug-01 14:00N 57°50' E 008°05'15 5.9
2020-Aug-01 11:31N 57°48' E 008°32'13 6.3
2020-Aug-01 09:31N 57°49' E 008°56'25 6.1
2020-Aug-01 05:30N 57°51' E 009°42'16 6.5
2020-Aug-01 03:00N 57°51' E 010°12'3 6.1
2020-Aug-01 02:31N 57°52' E 010°18'11 5.6
2020-Aug-01 00:31N 57°52' E 010°39'3 5.6
2020-Aug-01 00:01N 57°51' E 010°44'15 6.1
2020-Jul-31 21:31N 57°50' E 011°13'14 4.1
2020-Jul-31 17:59N 57°46' E 011°39'0 0.0
2020-Jul-31 15:29N 57°46' E 011°39'0 0.0
2020-Jul-31 11:59N 57°46' E 011°39'0 0.0
2020-Jul-31 09:59N 57°46' E 011°39'4 1.1
2020-Jul-31 06:30N 57°42' E 011°40'0 0.0
2020-Jul-31 06:00N 57°42' E 011°40'0 0.0
2020-Jul-31 05:00N 57°42' E 011°40'0 0.0
2020-Jul-31 04:00N 57°42' E 011°40'0 0.0
2020-Jul-31 01:00N 57°42' E 011°40'0 0.0
2020-Jul-31 00:30N 57°42' E 011°40'0 0.0
2020-Jul-30 22:30N 57°42' E 011°40'0 0.0
2020-Jul-30 21:30N 57°42' E 011°40'0 0.0
2020-Jul-30 20:30N 57°42' E 011°40'0 0.0
2020-Jul-30 19:30N 57°42' E 011°40'0 0.0
2020-Jul-30 13:30N 57°42' E 011°40'0 0.0
2020-Jul-30 10:30N 57°42' E 011°40'0 0.0
2020-Jul-30 09:00N 57°42' E 011°40'0 0.0
2020-Jul-30 08:30N 57°42' E 011°40'0 0.0
2020-Jul-30 06:00N 57°42' E 011°40'0 0.0
2020-Jul-30 04:00N 57°42' E 011°40'0 0.0
2020-Jul-29 21:00N 57°42' E 011°40'0 0.0
2020-Jul-29 20:30N 57°42' E 011°40'0 0.0
2020-Jul-29 19:30N 57°42' E 011°40'0 0.0
2020-Jul-29 17:00N 57°42' E 011°40'0 0.0
2020-Jul-29 16:30N 57°42' E 011°40'0 0.0
2020-Jul-29 15:30N 57°42' E 011°40'0 0.0
2020-Jul-29 14:30N 57°42' E 011°40'0 0.0
2020-Jul-29 09:30N 57°42' E 011°40'0 0.0
2020-Jul-29 05:00N 57°42' E 011°40'0 0.0
2020-Jul-29 03:00N 57°42' E 011°40'0 0.0
2020-Jul-29 01:00N 57°42' E 011°40'0 0.0
2020-Jul-28 23:30N 57°42' E 011°40'0 0.0
2020-Jul-28 19:30N 57°42' E 011°40'0 0.0
2020-Jul-28 17:00N 57°42' E 011°40'0 0.0
2020-Jul-28 15:00N 57°42' E 011°40'0 0.0
2020-Jul-28 13:00N 57°42' E 011°40'0 0.0
2020-Jul-28 11:30N 57°42' E 011°40'0 0.0
2020-Jul-28 11:00N 57°42' E 011°40'0 0.0
2020-Jul-28 10:30N 57°42' E 011°40'0 0.0
2020-Jul-28 09:30N 57°42' E 011°40'0 0.0
2020-Jul-28 06:30N 57°42' E 011°40'0 0.0
2020-Jul-28 05:30N 57°42' E 011°40'0 0.0
2020-Jul-28 01:30N 57°42' E 011°40'0 0.0
2020-Jul-27 23:00N 57°42' E 011°40'0 0.0
2020-Jul-27 19:00N 57°42' E 011°40'0 0.0
2020-Jul-27 17:30N 57°42' E 011°40'0 0.0
2020-Jul-27 17:00N 57°42' E 011°40'0 0.0
2020-Jul-27 16:30N 57°42' E 011°40'0 0.0
2020-Jul-27 16:00N 57°42' E 011°40'0 0.0
2020-Jul-27 15:30N 57°42' E 011°40'0 0.0
2020-Jul-27 15:00N 57°42' E 011°40'0 0.0
2020-Jul-27 14:30N 57°42' E 011°40'0 0.0
2020-Jul-27 12:00N 57°42' E 011°40'0 0.0
2020-Jul-27 10:00N 57°42' E 011°40'0 0.0
2020-Jul-27 09:30N 57°42' E 011°40'0 0.0
2020-Jul-27 08:00N 57°42' E 011°40'0 0.0
2020-Jul-27 06:30N 57°42' E 011°40'0 0.0
2020-Jul-27 05:30N 57°42' E 011°40'0 0.0
2020-Jul-27 04:30N 57°42' E 011°40'0 0.0
2020-Jul-27 03:30N 57°42' E 011°40'0 0.0
2020-Jul-27 03:00N 57°42' E 011°40'0 0.0
2020-Jul-27 02:30N 57°42' E 011°40'0 0.0
2020-Jul-27 02:00N 57°42' E 011°40'0 0.0
2020-Jul-27 01:00N 57°42' E 011°40'0 0.0
2020-Jul-26 20:30N 57°42' E 011°40'0 0.0
2020-Jul-26 18:00N 57°42' E 011°40'0 0.0
2020-Jul-26 17:30N 57°42' E 011°40'0 0.0
2020-Jul-26 16:00N 57°42' E 011°40'0 0.0
2020-Jul-26 15:30N 57°42' E 011°40'0 0.0
2020-Jul-26 12:00N 57°42' E 011°40'0 0.0
2020-Jul-26 11:30N 57°42' E 011°40'0 0.0
2020-Jul-26 09:00N 57°42' E 011°40'0 0.0
2020-Jul-26 07:30N 57°42' E 011°40'0 0.0
2020-Jul-26 05:30N 57°42' E 011°40'0 0.0
2020-Jul-26 02:30N 57°42' E 011°40'  
Track history (hours):
 
Tides and Currents Weather Stations Pressure Air Temp Water Temp Dewpoint Dewpoint Depression Visibility Wind Speed Wind Dir Waves Ship Positions

Gunilla (Sweden)

Ship's website: http://www.gunilla.nu/engelsk/frameset_english.htm

Last reported at 2020-Aug-04 10:30 UTC. Time now 2020-Aug-13 12:11 UTC.
Position N 60°51' E 002°36'.
Warning: this ship's position is 9 days out of date.

Length 49.4 m; beam 8.4 m; draft 2.7 m.

Type: Sailing vessel. MMSI: 265318000.

Date/timePositionNaut miles runAvg speedWind from/ knotsBaromVisibWave heightAir tempDewpointWater temp
2020-Aug-04 10:30N 60°51' E 002°36'5 4.9
2020-Aug-04 09:27N 60°47' E 002°43'3 5.2
2020-Aug-04 08:57N 60°45' E 002°46'2 5.3
2020-Aug-04 08:30N 60°43' E 002°48'17 4.8
2020-Aug-04 05:00N 60°29' E 003°04'5 5.1
2020-Aug-04 04:00N 60°25' E 003°11'5 5.1
2020-Aug-04 02:56N 60°20' E 003°15'22 4.9
2020-Aug-03 22:30N 59°59' E 003°28'24 4.9
2020-Aug-03 17:30N 59°35' E 003°33'6 6.1
2020-Aug-03 16:30N 59°29' E 003°33'5 4.7
2020-Aug-03 15:28N 59°24' E 003°31'10 3.9
2020-Aug-03 13:00N 59°14' E 003°36'67 3.4
2020-Aug-02 17:22N 58°08' E 003°58'5 5.9
2020-Aug-02 16:31N 58°08' E 004°07'17 5.8
2020-Aug-02 13:31N 58°07' E 004°40'3 5.0
2020-Aug-02 13:00N 58°07' E 004°45'3 5.2
2020-Aug-02 12:31N 58°06' E 004°49'10 5.0
2020-Aug-02 10:31N 58°05' E 005°08'2 4.7
2020-Aug-02 10:00N 58°04' E 005°13'15 4.3
2020-Aug-02 06:30N 57°60' E 005°40'6 4.0
2020-Aug-02 05:00N 57°58' E 005°51'2 4.6
2020-Aug-02 04:30N 57°58' E 005°55'2 4.9
2020-Aug-02 04:00N 57°57' E 005°59'5 5.2
2020-Aug-02 03:01N 57°57' E 006°09'6 5.6
2020-Aug-02 02:00N 57°56' E 006°20'6 5.5
2020-Aug-02 01:00N 57°53' E 006°29'12 4.7
2020-Aug-01 22:31N 57°48' E 006°48'32 4.9
2020-Aug-01 16:01N 57°45' E 007°48'10 5.2
2020-Aug-01 14:00N 57°50' E 008°05'15 5.9
2020-Aug-01 11:31N 57°48' E 008°32'13 6.3
2020-Aug-01 09:31N 57°49' E 008°56'25 6.1
2020-Aug-01 05:30N 57°51' E 009°42'16 6.5
2020-Aug-01 03:00N 57°51' E 010°12'3 6.1
2020-Aug-01 02:31N 57°52' E 010°18'11 5.6
2020-Aug-01 00:31N 57°52' E 010°39'3 5.6
2020-Aug-01 00:01N 57°51' E 010°44'15 6.1
2020-Jul-31 21:31N 57°50' E 011°13'14 4.1
2020-Jul-31 17:59N 57°46' E 011°39'0 0.0
2020-Jul-31 15:29N 57°46' E 011°39'0 0.0
2020-Jul-31 11:59N 57°46' E 011°39'0 0.0
2020-Jul-31 09:59N 57°46' E 011°39'4 1.1
2020-Jul-31 06:30N 57°42' E 011°40'0 0.0
2020-Jul-31 06:00N 57°42' E 011°40'0 0.0
2020-Jul-31 05:00N 57°42' E 011°40'0 0.0
2020-Jul-31 04:00N 57°42' E 011°40'0 0.0
2020-Jul-31 01:00N 57°42' E 011°40'0 0.0
2020-Jul-31 00:30N 57°42' E 011°40'0 0.0
2020-Jul-30 22:30N 57°42' E 011°40'0 0.0
2020-Jul-30 21:30N 57°42' E 011°40'0 0.0
2020-Jul-30 20:30N 57°42' E 011°40'0 0.0
2020-Jul-30 19:30N 57°42' E 011°40'0 0.0
2020-Jul-30 13:30N 57°42' E 011°40'0 0.0
2020-Jul-30 10:30N 57°42' E 011°40'0 0.0
2020-Jul-30 09:00N 57°42' E 011°40'0 0.0
2020-Jul-30 08:30N 57°42' E 011°40'0 0.0
2020-Jul-30 06:00N 57°42' E 011°40'0 0.0
2020-Jul-30 04:00N 57°42' E 011°40'0 0.0
2020-Jul-29 21:00N 57°42' E 011°40'0 0.0
2020-Jul-29 20:30N 57°42' E 011°40'0 0.0
2020-Jul-29 19:30N 57°42' E 011°40'0 0.0
2020-Jul-29 17:00N 57°42' E 011°40'0 0.0
2020-Jul-29 16:30N 57°42' E 011°40'0 0.0
2020-Jul-29 15:30N 57°42' E 011°40'0 0.0
2020-Jul-29 14:30N 57°42' E 011°40'0 0.0
2020-Jul-29 09:30N 57°42' E 011°40'0 0.0
2020-Jul-29 05:00N 57°42' E 011°40'0 0.0
2020-Jul-29 03:00N 57°42' E 011°40'0 0.0
2020-Jul-29 01:00N 57°42' E 011°40'0 0.0
2020-Jul-28 23:30N 57°42' E 011°40'0 0.0
2020-Jul-28 19:30N 57°42' E 011°40'0 0.0
2020-Jul-28 17:00N 57°42' E 011°40'0 0.0
2020-Jul-28 15:00N 57°42' E 011°40'0 0.0
2020-Jul-28 13:00N 57°42' E 011°40'0 0.0
2020-Jul-28 11:30N 57°42' E 011°40'0 0.0
2020-Jul-28 11:00N 57°42' E 011°40'0 0.0
2020-Jul-28 10:30N 57°42' E 011°40'0 0.0
2020-Jul-28 09:30N 57°42' E 011°40'0 0.0
2020-Jul-28 06:30N 57°42' E 011°40'0 0.0
2020-Jul-28 05:30N 57°42' E 011°40'0 0.0
2020-Jul-28 01:30N 57°42' E 011°40'0 0.0
2020-Jul-27 23:00N 57°42' E 011°40'0 0.0
2020-Jul-27 19:00N 57°42' E 011°40'0 0.0
2020-Jul-27 17:30N 57°42' E 011°40'0 0.0
2020-Jul-27 17:00N 57°42' E 011°40'0 0.0
2020-Jul-27 16:30N 57°42' E 011°40'0 0.0
2020-Jul-27 16:00N 57°42' E 011°40'0 0.0
2020-Jul-27 15:30N 57°42' E 011°40'0 0.0
2020-Jul-27 15:00N 57°42' E 011°40'0 0.0
2020-Jul-27 14:30N 57°42' E 011°40'0 0.0
2020-Jul-27 12:00N 57°42' E 011°40'0 0.0
2020-Jul-27 10:00N 57°42' E 011°40'0 0.0
2020-Jul-27 09:30N 57°42' E 011°40'0 0.0
2020-Jul-27 08:00N 57°42' E 011°40'0 0.0
2020-Jul-27 06:30N 57°42' E 011°40'0 0.0
2020-Jul-27 05:30N 57°42' E 011°40'0 0.0
2020-Jul-27 04:30N 57°42' E 011°40'0 0.0
2020-Jul-27 03:30N 57°42' E 011°40'0 0.0
2020-Jul-27 03:00N 57°42' E 011°40'0 0.0
2020-Jul-27 02:30N 57°42' E 011°40'0 0.0
2020-Jul-27 02:00N 57°42' E 011°40'0 0.0
2020-Jul-27 01:00N 57°42' E 011°40'0 0.0
2020-Jul-26 20:30N 57°42' E 011°40'0 0.0
2020-Jul-26 18:00N 57°42' E 011°40'0 0.0
2020-Jul-26 17:30N 57°42' E 011°40'0 0.0
2020-Jul-26 16:00N 57°42' E 011°40'0 0.0
2020-Jul-26 15:30N 57°42' E 011°40'0 0.0
2020-Jul-26 12:00N 57°42' E 011°40'0 0.0
2020-Jul-26 11:30N 57°42' E 011°40'0 0.0
2020-Jul-26 09:00N 57°42' E 011°40'0 0.0
2020-Jul-26 07:30N 57°42' E 011°40'0 0.0
2020-Jul-26 05:30N 57°42' E 011°40'0 0.0
2020-Jul-26 02:30N 57°42' E 011°40'  

Dump ship's entire track history